sensor_id;sensor_type;location;lat;lon;timestamp;P1;durP1;ratioP1;P2;durP2;ratioP2
20101;SDS011;10210;52.284;9.892;2023-01-10T00:00:35;22.00;;;9.87;;
20101;SDS011;10210;52.284;9.892;2023-01-10T00:03:02;20.67;;;9.47;;
20101;SDS011;10210;52.284;9.892;2023-01-10T00:05:30;21.17;;;9.80;;
20101;SDS011;10210;52.284;9.892;2023-01-10T00:07:56;22.90;;;10.07;;
20101;SDS011;10210;52.284;9.892;2023-01-10T00:10:23;23.60;;;10.27;;
20101;SDS011;10210;52.284;9.892;2023-01-10T00:12:49;25.50;;;10.10;;
20101;SDS011;10210;52.284;9.892;2023-01-10T00:15:34;24.53;;;10.30;;
20101;SDS011;10210;52.284;9.892;2023-01-10T00:18:00;21.47;;;9.97;;
20101;SDS011;10210;52.284;9.892;2023-01-10T00:20:27;22.63;;;10.23;;
20101;SDS011;10210;52.284;9.892;2023-01-10T00:22:53;21.80;;;10.00;;
20101;SDS011;10210;52.284;9.892;2023-01-10T00:25:19;24.43;;;10.00;;
20101;SDS011;10210;52.284;9.892;2023-01-10T00:27:48;21.17;;;10.07;;
20101;SDS011;10210;52.284;9.892;2023-01-10T00:30:25;24.70;;;10.27;;
20101;SDS011;10210;52.284;9.892;2023-01-10T00:32:52;23.57;;;10.53;;
20101;SDS011;10210;52.284;9.892;2023-01-10T00:35:18;21.43;;;9.60;;
20101;SDS011;10210;52.284;9.892;2023-01-10T00:37:44;21.57;;;10.50;;
20101;SDS011;10210;52.284;9.892;2023-01-10T00:40:10;26.03;;;10.73;;
20101;SDS011;10210;52.284;9.892;2023-01-10T00:42:36;21.67;;;10.70;;
20101;SDS011;10210;52.284;9.892;2023-01-10T00:45:21;21.70;;;10.13;;
20101;SDS011;10210;52.284;9.892;2023-01-10T00:47:49;23.07;;;10.67;;
20101;SDS011;10210;52.284;9.892;2023-01-10T00:50:15;21.53;;;10.33;;
20101;SDS011;10210;52.284;9.892;2023-01-10T00:52:42;21.57;;;10.53;;
20101;SDS011;10210;52.284;9.892;2023-01-10T00:55:08;19.30;;;10.87;;
20101;SDS011;10210;52.284;9.892;2023-01-10T00:57:34;23.87;;;11.37;;
20101;SDS011;10210;52.284;9.892;2023-01-10T00:59:59;21.67;;;10.27;;
20101;SDS011;10210;52.284;9.892;2023-01-10T01:02:25;19.63;;;10.23;;
20101;SDS011;10210;52.284;9.892;2023-01-10T01:04:51;22.60;;;11.00;;
20101;SDS011;10210;52.284;9.892;2023-01-10T01:07:16;24.87;;;11.07;;
20101;SDS011;10210;52.284;9.892;2023-01-10T01:09:42;20.87;;;10.10;;
20101;SDS011;10210;52.284;9.892;2023-01-10T01:12:26;23.30;;;10.73;;
20101;SDS011;10210;52.284;9.892;2023-01-10T01:14:52;22.03;;;9.67;;
20101;SDS011;10210;52.284;9.892;2023-01-10T01:17:17;20.60;;;9.60;;
20101;SDS011;10210;52.284;9.892;2023-01-10T01:19:43;19.07;;;9.50;;
20101;SDS011;10210;52.284;9.892;2023-01-10T01:22:09;23.30;;;10.17;;
20101;SDS011;10210;52.284;9.892;2023-01-10T01:24:35;22.57;;;10.77;;
20101;SDS011;10210;52.284;9.892;2023-01-10T01:27:00;17.40;;;8.97;;
20101;SDS011;10210;52.284;9.892;2023-01-10T01:29:26;20.50;;;9.73;;
20101;SDS011;10210;52.284;9.892;2023-01-10T01:31:52;18.63;;;9.80;;
20101;SDS011;10210;52.284;9.892;2023-01-10T01:34:17;19.47;;;9.53;;
20101;SDS011;10210;52.284;9.892;2023-01-10T01:36:43;21.47;;;8.73;;
20101;SDS011;10210;52.284;9.892;2023-01-10T01:39:09;19.27;;;8.63;;
20101;SDS011;10210;52.284;9.892;2023-01-10T01:41:34;21.57;;;9.77;;
20101;SDS011;10210;52.284;9.892;2023-01-10T01:44:19;17.83;;;8.10;;
20101;SDS011;10210;52.284;9.892;2023-01-10T01:46:45;20.53;;;8.70;;
20101;SDS011;10210;52.284;9.892;2023-01-10T01:49:31;17.83;;;8.70;;
20101;SDS011;10210;52.284;9.892;2023-01-10T01:52:37;19.13;;;8.40;;
20101;SDS011;10210;52.284;9.892;2023-01-10T01:54:58;17.63;;;8.10;;
20101;SDS011;10210;52.284;9.892;2023-01-10T01:57:28;17.53;;;8.33;;
20101;SDS011;10210;52.284;9.892;2023-01-10T01:59:56;18.93;;;8.50;;
20101;SDS011;10210;52.284;9.892;2023-01-10T02:02:27;16.60;;;8.70;;
20101;SDS011;10210;52.284;9.892;2023-01-10T02:05:04;17.60;;;8.87;;
20101;SDS011;10210;52.284;9.892;2023-01-10T02:07:35;17.67;;;8.60;;
20101;SDS011;10210;52.284;9.892;2023-01-10T02:13:05;18.83;;;7.93;;
20101;SDS011;10210;52.284;9.892;2023-01-10T02:15:33;19.57;;;8.27;;
20101;SDS011;10210;52.284;9.892;2023-01-10T02:17:58;16.00;;;7.43;;
20101;SDS011;10210;52.284;9.892;2023-01-10T02:20:28;17.07;;;7.53;;
20101;SDS011;10210;52.284;9.892;2023-01-10T02:29:06;17.97;;;7.60;;
20101;SDS011;10210;52.284;9.892;2023-01-10T02:43:09;18.23;;;7.30;;
20101;SDS011;10210;52.284;9.892;2023-01-10T02:45:46;16.17;;;6.67;;
20101;SDS011;10210;52.284;9.892;2023-01-10T02:48:37;15.40;;;6.23;;
20101;SDS011;10210;52.284;9.892;2023-01-10T02:51:03;15.80;;;5.37;;
20101;SDS011;10210;52.284;9.892;2023-01-10T02:53:43;14.67;;;5.80;;
20101;SDS011;10210;52.284;9.892;2023-01-10T03:02:36;15.83;;;6.03;;
20101;SDS011;10210;52.284;9.892;2023-01-10T03:05:32;18.63;;;6.50;;
20101;SDS011;10210;52.284;9.892;2023-01-10T03:08:25;17.50;;;6.50;;
20101;SDS011;10210;52.284;9.892;2023-01-10T03:11:14;19.07;;;6.20;;
20101;SDS011;10210;52.284;9.892;2023-01-10T03:13:51;14.90;;;6.30;;
20101;SDS011;10210;52.284;9.892;2023-01-10T03:16:25;17.20;;;5.90;;
20101;SDS011;10210;52.284;9.892;2023-01-10T03:18:56;18.23;;;6.10;;
20101;SDS011;10210;52.284;9.892;2023-01-10T03:21:29;16.67;;;5.37;;
20101;SDS011;10210;52.284;9.892;2023-01-10T03:23:59;17.33;;;5.90;;
20101;SDS011;10210;52.284;9.892;2023-01-10T03:26:46;13.63;;;5.13;;
20101;SDS011;10210;52.284;9.892;2023-01-10T03:29:27;15.93;;;5.70;;
20101;SDS011;10210;52.284;9.892;2023-01-10T03:32:01;15.53;;;4.90;;
20101;SDS011;10210;52.284;9.892;2023-01-10T03:34:31;14.70;;;4.77;;
20101;SDS011;10210;52.284;9.892;2023-01-10T03:37:02;15.90;;;4.20;;
20101;SDS011;10210;52.284;9.892;2023-01-10T03:43:07;13.53;;;4.10;;
20101;SDS011;10210;52.284;9.892;2023-01-10T03:46:07;13.20;;;3.70;;
20101;SDS011;10210;52.284;9.892;2023-01-10T03:48:45;9.40;;;3.07;;
20101;SDS011;10210;52.284;9.892;2023-01-10T03:51:13;11.97;;;2.90;;
20101;SDS011;10210;52.284;9.892;2023-01-10T03:53:42;10.50;;;2.93;;
20101;SDS011;10210;52.284;9.892;2023-01-10T03:56:11;12.70;;;3.20;;
20101;SDS011;10210;52.284;9.892;2023-01-10T03:58:38;13.87;;;3.60;;
20101;SDS011;10210;52.284;9.892;2023-01-10T04:01:04;15.33;;;3.23;;
20101;SDS011;10210;52.284;9.892;2023-01-10T04:03:30;11.33;;;3.83;;
20101;SDS011;10210;52.284;9.892;2023-01-10T04:05:56;11.97;;;3.20;;
20101;SDS011;10210;52.284;9.892;2023-01-10T04:08:21;14.33;;;3.47;;
20101;SDS011;10210;52.284;9.892;2023-01-10T04:10:47;14.37;;;3.47;;
20101;SDS011;10210;52.284;9.892;2023-01-10T04:13:14;15.57;;;3.50;;
20101;SDS011;10210;52.284;9.892;2023-01-10T04:15:40;19.03;;;3.83;;
20101;SDS011;10210;52.284;9.892;2023-01-10T04:18:05;12.20;;;3.57;;
20101;SDS011;10210;52.284;9.892;2023-01-10T04:20:31;15.00;;;4.17;;
20101;SDS011;10210;52.284;9.892;2023-01-10T04:22:56;14.90;;;3.40;;
20101;SDS011;10210;52.284;9.892;2023-01-10T04:25:22;16.67;;;3.93;;
20101;SDS011;10210;52.284;9.892;2023-01-10T04:27:49;13.93;;;3.80;;
20101;SDS011;10210;52.284;9.892;2023-01-10T04:30:16;15.63;;;4.30;;
20101;SDS011;10210;52.284;9.892;2023-01-10T04:32:43;16.17;;;4.10;;
20101;SDS011;10210;52.284;9.892;2023-01-10T04:35:09;14.40;;;3.93;;
20101;SDS011;10210;52.284;9.892;2023-01-10T04:37:34;16.10;;;4.03;;
20101;SDS011;10210;52.284;9.892;2023-01-10T04:40:01;16.13;;;4.40;;
20101;SDS011;10210;52.284;9.892;2023-01-10T04:42:28;17.67;;;4.70;;
20101;SDS011;10210;52.284;9.892;2023-01-10T04:44:54;17.73;;;4.30;;
20101;SDS011;10210;52.284;9.892;2023-01-10T04:47:19;19.87;;;4.73;;
20101;SDS011;10210;52.284;9.892;2023-01-10T04:49:45;19.60;;;4.47;;
20101;SDS011;10210;52.284;9.892;2023-01-10T04:52:11;20.33;;;4.83;;
20101;SDS011;10210;52.284;9.892;2023-01-10T04:54:36;17.43;;;4.47;;
20101;SDS011;10210;52.284;9.892;2023-01-10T04:57:02;19.13;;;4.47;;
20101;SDS011;10210;52.284;9.892;2023-01-10T04:59:30;19.47;;;4.47;;
20101;SDS011;10210;52.284;9.892;2023-01-10T05:01:56;16.00;;;4.53;;
20101;SDS011;10210;52.284;9.892;2023-01-10T05:04:22;17.60;;;4.50;;
20101;SDS011;10210;52.284;9.892;2023-01-10T05:06:48;21.70;;;5.13;;
20101;SDS011;10210;52.284;9.892;2023-01-10T05:09:14;17.00;;;4.73;;
20101;SDS011;10210;52.284;9.892;2023-01-10T05:11:40;18.53;;;4.80;;
20101;SDS011;10210;52.284;9.892;2023-01-10T05:14:06;18.83;;;5.03;;
20101;SDS011;10210;52.284;9.892;2023-01-10T05:16:31;15.20;;;4.50;;
20101;SDS011;10210;52.284;9.892;2023-01-10T05:18:57;21.20;;;5.37;;
20101;SDS011;10210;52.284;9.892;2023-01-10T05:21:23;21.50;;;4.70;;
20101;SDS011;10210;52.284;9.892;2023-01-10T05:23:48;17.93;;;4.70;;
20101;SDS011;10210;52.284;9.892;2023-01-10T05:26:15;19.70;;;5.30;;
20101;SDS011;10210;52.284;9.892;2023-01-10T05:28:44;19.03;;;4.77;;
20101;SDS011;10210;52.284;9.892;2023-01-10T05:31:13;19.97;;;4.93;;
20101;SDS011;10210;52.284;9.892;2023-01-10T05:33:42;18.40;;;5.13;;
20101;SDS011;10210;52.284;9.892;2023-01-10T05:36:12;19.83;;;5.30;;
20101;SDS011;10210;52.284;9.892;2023-01-10T05:38:39;19.43;;;5.73;;
20101;SDS011;10210;52.284;9.892;2023-01-10T05:41:04;19.70;;;5.07;;
20101;SDS011;10210;52.284;9.892;2023-01-10T05:43:30;14.90;;;5.00;;
20101;SDS011;10210;52.284;9.892;2023-01-10T05:45:56;18.90;;;5.03;;
20101;SDS011;10210;52.284;9.892;2023-01-10T05:48:22;19.67;;;5.23;;
20101;SDS011;10210;52.284;9.892;2023-01-10T05:50:48;17.20;;;5.03;;
20101;SDS011;10210;52.284;9.892;2023-01-10T05:53:15;20.50;;;5.60;;
20101;SDS011;10210;52.284;9.892;2023-01-10T05:55:42;19.00;;;5.90;;
20101;SDS011;10210;52.284;9.892;2023-01-10T05:58:15;19.50;;;6.23;;
20101;SDS011;10210;52.284;9.892;2023-01-10T06:00:41;16.57;;;6.13;;
20101;SDS011;10210;52.284;9.892;2023-01-10T06:03:07;21.27;;;6.20;;
20101;SDS011;10210;52.284;9.892;2023-01-10T06:05:32;21.37;;;7.00;;
20101;SDS011;10210;52.284;9.892;2023-01-10T06:07:58;19.83;;;6.30;;
20101;SDS011;10210;52.284;9.892;2023-01-10T06:10:23;24.50;;;5.90;;
20101;SDS011;10210;52.284;9.892;2023-01-10T06:12:49;21.40;;;8.33;;
20101;SDS011;10210;52.284;9.892;2023-01-10T06:15:15;20.90;;;6.57;;
20101;SDS011;10210;52.284;9.892;2023-01-10T06:17:41;18.13;;;6.63;;
20101;SDS011;10210;52.284;9.892;2023-01-10T06:20:08;22.73;;;6.50;;
20101;SDS011;10210;52.284;9.892;2023-01-10T06:22:38;17.93;;;6.20;;
20101;SDS011;10210;52.284;9.892;2023-01-10T06:25:08;23.50;;;6.40;;
20101;SDS011;10210;52.284;9.892;2023-01-10T06:27:37;22.30;;;6.40;;
20101;SDS011;10210;52.284;9.892;2023-01-10T06:30:08;19.43;;;6.17;;
20101;SDS011;10210;52.284;9.892;2023-01-10T06:32:37;18.90;;;5.67;;
20101;SDS011;10210;52.284;9.892;2023-01-10T06:35:03;19.17;;;5.83;;
20101;SDS011;10210;52.284;9.892;2023-01-10T06:37:29;22.03;;;6.57;;
20101;SDS011;10210;52.284;9.892;2023-01-10T06:39:55;22.63;;;5.77;;
20101;SDS011;10210;52.284;9.892;2023-01-10T06:42:21;23.43;;;5.80;;
20101;SDS011;10210;52.284;9.892;2023-01-10T06:44:47;23.07;;;6.40;;
20101;SDS011;10210;52.284;9.892;2023-01-10T06:47:12;20.80;;;5.87;;
20101;SDS011;10210;52.284;9.892;2023-01-10T06:49:38;25.57;;;6.67;;
20101;SDS011;10210;52.284;9.892;2023-01-10T06:52:04;24.60;;;6.23;;
20101;SDS011;10210;52.284;9.892;2023-01-10T06:54:29;20.47;;;6.50;;
20101;SDS011;10210;52.284;9.892;2023-01-10T06:56:55;19.70;;;5.93;;
20101;SDS011;10210;52.284;9.892;2023-01-10T06:59:20;18.67;;;6.57;;
20101;SDS011;10210;52.284;9.892;2023-01-10T07:01:46;21.70;;;5.90;;
20101;SDS011;10210;52.284;9.892;2023-01-10T07:04:12;21.30;;;6.97;;
20101;SDS011;10210;52.284;9.892;2023-01-10T07:06:37;21.77;;;6.37;;
20101;SDS011;10210;52.284;9.892;2023-01-10T07:09:05;23.07;;;8.00;;
20101;SDS011;10210;52.284;9.892;2023-01-10T07:11:32;19.47;;;6.20;;
20101;SDS011;10210;52.284;9.892;2023-01-10T07:13:59;21.17;;;6.73;;
20101;SDS011;10210;52.284;9.892;2023-01-10T07:16:26;18.03;;;6.43;;
20101;SDS011;10210;52.284;9.892;2023-01-10T07:18:52;21.33;;;6.77;;
20101;SDS011;10210;52.284;9.892;2023-01-10T07:21:18;21.43;;;6.93;;
20101;SDS011;10210;52.284;9.892;2023-01-10T07:23:46;21.57;;;6.93;;
20101;SDS011;10210;52.284;9.892;2023-01-10T07:26:15;19.67;;;7.30;;
20101;SDS011;10210;52.284;9.892;2023-01-10T07:28:43;22.67;;;7.73;;
20101;SDS011;10210;52.284;9.892;2023-01-10T07:31:11;25.30;;;8.73;;
20101;SDS011;10210;52.284;9.892;2023-01-10T07:33:37;22.63;;;7.73;;
20101;SDS011;10210;52.284;9.892;2023-01-10T07:36:03;21.90;;;7.90;;
20101;SDS011;10210;52.284;9.892;2023-01-10T07:38:29;26.80;;;7.60;;
20101;SDS011;10210;52.284;9.892;2023-01-10T07:40:55;25.40;;;7.37;;
20101;SDS011;10210;52.284;9.892;2023-01-10T07:43:20;20.03;;;8.17;;
20101;SDS011;10210;52.284;9.892;2023-01-10T07:45:46;22.97;;;7.73;;
20101;SDS011;10210;52.284;9.892;2023-01-10T07:48:12;22.47;;;7.57;;
20101;SDS011;10210;52.284;9.892;2023-01-10T07:50:38;21.00;;;8.60;;
20101;SDS011;10210;52.284;9.892;2023-01-10T07:53:04;20.37;;;8.57;;
20101;SDS011;10210;52.284;9.892;2023-01-10T07:55:32;27.47;;;8.50;;
20101;SDS011;10210;52.284;9.892;2023-01-10T07:58:00;23.27;;;8.80;;
20101;SDS011;10210;52.284;9.892;2023-01-10T08:00:26;24.17;;;9.70;;
20101;SDS011;10210;52.284;9.892;2023-01-10T08:02:52;19.97;;;8.90;;
20101;SDS011;10210;52.284;9.892;2023-01-10T08:05:19;24.77;;;9.27;;
20101;SDS011;10210;52.284;9.892;2023-01-10T08:07:45;22.93;;;9.87;;
20101;SDS011;10210;52.284;9.892;2023-01-10T08:10:11;22.73;;;9.83;;
20101;SDS011;10210;52.284;9.892;2023-01-10T08:12:36;23.57;;;10.00;;
20101;SDS011;10210;52.284;9.892;2023-01-10T08:15:02;26.67;;;11.33;;
20101;SDS011;10210;52.284;9.892;2023-01-10T08:17:31;23.37;;;10.03;;
20101;SDS011;10210;52.284;9.892;2023-01-10T08:19:58;25.40;;;10.40;;
20101;SDS011;10210;52.284;9.892;2023-01-10T08:22:24;25.20;;;11.50;;
20101;SDS011;10210;52.284;9.892;2023-01-10T08:24:49;23.23;;;10.37;;
20101;SDS011;10210;52.284;9.892;2023-01-10T08:27:15;25.17;;;10.60;;
20101;SDS011;10210;52.284;9.892;2023-01-10T08:29:41;23.30;;;10.40;;
20101;SDS011;10210;52.284;9.892;2023-01-10T08:32:06;26.60;;;12.17;;
20101;SDS011;10210;52.284;9.892;2023-01-10T08:34:32;21.03;;;10.63;;
20101;SDS011;10210;52.284;9.892;2023-01-10T08:36:58;25.00;;;10.67;;
20101;SDS011;10210;52.284;9.892;2023-01-10T08:39:24;23.80;;;11.27;;
20101;SDS011;10210;52.284;9.892;2023-01-10T08:41:52;25.43;;;11.27;;
20101;SDS011;10210;52.284;9.892;2023-01-10T08:44:18;25.30;;;11.20;;
20101;SDS011;10210;52.284;9.892;2023-01-10T08:46:44;23.93;;;10.67;;
20101;SDS011;10210;52.284;9.892;2023-01-10T08:49:09;28.33;;;11.37;;
20101;SDS011;10210;52.284;9.892;2023-01-10T08:51:35;29.27;;;10.63;;
20101;SDS011;10210;52.284;9.892;2023-01-10T08:54:01;23.87;;;10.40;;
20101;SDS011;10210;52.284;9.892;2023-01-10T08:56:28;23.47;;;11.20;;
20101;SDS011;10210;52.284;9.892;2023-01-10T08:58:54;22.43;;;10.47;;
20101;SDS011;10210;52.284;9.892;2023-01-10T09:01:20;24.63;;;10.93;;
20101;SDS011;10210;52.284;9.892;2023-01-10T09:03:46;23.83;;;10.60;;
20101;SDS011;10210;52.284;9.892;2023-01-10T09:06:11;25.47;;;11.10;;
20101;SDS011;10210;52.284;9.892;2023-01-10T09:08:37;24.10;;;10.73;;
20101;SDS011;10210;52.284;9.892;2023-01-10T09:11:03;22.87;;;10.83;;
20101;SDS011;10210;52.284;9.892;2023-01-10T09:13:31;29.47;;;10.30;;
20101;SDS011;10210;52.284;9.892;2023-01-10T09:15:57;25.47;;;10.67;;
20101;SDS011;10210;52.284;9.892;2023-01-10T09:18:24;26.07;;;10.40;;
20101;SDS011;10210;52.284;9.892;2023-01-10T09:20:50;24.63;;;11.27;;
20101;SDS011;10210;52.284;9.892;2023-01-10T09:23:17;21.20;;;10.53;;
20101;SDS011;10210;52.284;9.892;2023-01-10T09:25:46;27.53;;;10.70;;
20101;SDS011;10210;52.284;9.892;2023-01-10T09:28:14;23.83;;;10.17;;
20101;SDS011;10210;52.284;9.892;2023-01-10T09:30:41;24.70;;;9.50;;
20101;SDS011;10210;52.284;9.892;2023-01-10T09:33:08;24.77;;;9.87;;
20101;SDS011;10210;52.284;9.892;2023-01-10T09:35:35;26.47;;;10.97;;
20101;SDS011;10210;52.284;9.892;2023-01-10T09:38:04;22.80;;;9.20;;
20101;SDS011;10210;52.284;9.892;2023-01-10T09:40:42;20.73;;;9.07;;
20101;SDS011;10210;52.284;9.892;2023-01-10T09:46:47;24.37;;;9.00;;
20101;SDS011;10210;52.284;9.892;2023-01-10T09:49:43;24.37;;;10.23;;
20101;SDS011;10210;52.284;9.892;2023-01-10T09:52:34;24.20;;;9.93;;
20101;SDS011;10210;52.284;9.892;2023-01-10T09:55:19;21.53;;;8.77;;
20101;SDS011;10210;52.284;9.892;2023-01-10T09:57:55;27.40;;;9.83;;
20101;SDS011;10210;52.284;9.892;2023-01-10T10:00:32;31.00;;;12.13;;
20101;SDS011;10210;52.284;9.892;2023-01-10T10:03:25;26.43;;;10.00;;
20101;SDS011;10210;52.284;9.892;2023-01-10T10:06:09;26.60;;;10.33;;
20101;SDS011;10210;52.284;9.892;2023-01-10T10:08:37;25.50;;;10.40;;
20101;SDS011;10210;52.284;9.892;2023-01-10T10:13:59;28.77;;;10.67;;
20101;SDS011;10210;52.284;9.892;2023-01-10T10:16:53;28.07;;;11.50;;
20101;SDS011;10210;52.284;9.892;2023-01-10T10:22:41;30.53;;;11.90;;
20101;SDS011;10210;52.284;9.892;2023-01-10T10:28:30;29.57;;;12.00;;
20101;SDS011;10210;52.284;9.892;2023-01-10T10:34:28;27.37;;;11.27;;
20101;SDS011;10210;52.284;9.892;2023-01-10T10:37:04;28.20;;;12.07;;
20101;SDS011;10210;52.284;9.892;2023-01-10T10:39:45;29.03;;;11.10;;
20101;SDS011;10210;52.284;9.892;2023-01-10T10:42:21;26.20;;;12.50;;
20101;SDS011;10210;52.284;9.892;2023-01-10T10:47:31;26.37;;;11.63;;
20101;SDS011;10210;52.284;9.892;2023-01-10T10:50:04;27.37;;;11.33;;
20101;SDS011;10210;52.284;9.892;2023-01-10T10:52:52;29.00;;;12.23;;
20101;SDS011;10210;52.284;9.892;2023-01-10T10:55:20;24.27;;;11.00;;
20101;SDS011;10210;52.284;9.892;2023-01-10T10:57:54;24.10;;;9.73;;
20101;SDS011;10210;52.284;9.892;2023-01-10T11:00:21;21.20;;;9.30;;
20101;SDS011;10210;52.284;9.892;2023-01-10T11:02:49;24.10;;;9.37;;
20101;SDS011;10210;52.284;9.892;2023-01-10T11:05:26;25.37;;;9.90;;
20101;SDS011;10210;52.284;9.892;2023-01-10T11:08:04;22.73;;;9.27;;
20101;SDS011;10210;52.284;9.892;2023-01-10T11:10:45;23.97;;;9.33;;
20101;SDS011;10210;52.284;9.892;2023-01-10T11:15:59;26.83;;;11.00;;
20101;SDS011;10210;52.284;9.892;2023-01-10T11:18:29;26.40;;;9.73;;
20101;SDS011;10210;52.284;9.892;2023-01-10T11:20:58;20.27;;;9.33;;
20101;SDS011;10210;52.284;9.892;2023-01-10T11:26:49;24.80;;;9.57;;
20101;SDS011;10210;52.284;9.892;2023-01-10T11:31:50;24.40;;;9.33;;
20101;SDS011;10210;52.284;9.892;2023-01-10T11:36:59;25.40;;;8.87;;
20101;SDS011;10210;52.284;9.892;2023-01-10T11:39:30;26.37;;;9.07;;
20101;SDS011;10210;52.284;9.892;2023-01-10T11:41:56;24.93;;;9.37;;
20101;SDS011;10210;52.284;9.892;2023-01-10T11:44:49;27.40;;;9.67;;
20101;SDS011;10210;52.284;9.892;2023-01-10T11:47:14;24.80;;;8.03;;
20101;SDS011;10210;52.284;9.892;2023-01-10T11:49:44;27.97;;;8.60;;
20101;SDS011;10210;52.284;9.892;2023-01-10T11:52:16;23.83;;;8.13;;
20101;SDS011;10210;52.284;9.892;2023-01-10T11:54:52;27.67;;;8.30;;
20101;SDS011;10210;52.284;9.892;2023-01-10T11:57:22;25.63;;;8.33;;
20101;SDS011;10210;52.284;9.892;2023-01-10T11:59:52;21.77;;;9.57;;
20101;SDS011;10210;52.284;9.892;2023-01-10T12:02:23;25.97;;;8.40;;
20101;SDS011;10210;52.284;9.892;2023-01-10T12:04:51;23.93;;;8.43;;
20101;SDS011;10210;52.284;9.892;2023-01-10T12:07:22;27.40;;;8.03;;
20101;SDS011;10210;52.284;9.892;2023-01-10T12:12:29;25.23;;;8.27;;
20101;SDS011;10210;52.284;9.892;2023-01-10T12:15:00;23.47;;;7.50;;
20101;SDS011;10210;52.284;9.892;2023-01-10T12:18:01;25.17;;;7.97;;
20101;SDS011;10210;52.284;9.892;2023-01-10T12:20:35;24.13;;;8.30;;
20101;SDS011;10210;52.284;9.892;2023-01-10T12:23:12;23.73;;;7.73;;
20101;SDS011;10210;52.284;9.892;2023-01-10T12:25:45;22.63;;;8.60;;
20101;SDS011;10210;52.284;9.892;2023-01-10T12:28:26;25.67;;;8.27;;
20101;SDS011;10210;52.284;9.892;2023-01-10T12:30:54;23.40;;;8.10;;
20101;SDS011;10210;52.284;9.892;2023-01-10T12:33:25;25.00;;;7.97;;
20101;SDS011;10210;52.284;9.892;2023-01-10T12:36:01;24.33;;;8.00;;
20101;SDS011;10210;52.284;9.892;2023-01-10T12:38:34;21.63;;;7.30;;
20101;SDS011;10210;52.284;9.892;2023-01-10T12:44:30;22.83;;;7.87;;
20101;SDS011;10210;52.284;9.892;2023-01-10T12:50:00;25.30;;;6.93;;
20101;SDS011;10210;52.284;9.892;2023-01-10T12:52:49;26.73;;;7.20;;
20101;SDS011;10210;52.284;9.892;2023-01-10T12:55:55;24.47;;;7.17;;
20101;SDS011;10210;52.284;9.892;2023-01-10T13:01:30;22.57;;;6.40;;
20101;SDS011;10210;52.284;9.892;2023-01-10T13:04:04;26.47;;;7.83;;
20101;SDS011;10210;52.284;9.892;2023-01-10T13:06:36;23.90;;;7.53;;
20101;SDS011;10210;52.284;9.892;2023-01-10T13:09:07;22.80;;;6.30;;
20101;SDS011;10210;52.284;9.892;2023-01-10T13:14:57;24.43;;;6.80;;
20101;SDS011;10210;52.284;9.892;2023-01-10T13:22:41;24.80;;;7.43;;
20101;SDS011;10210;52.284;9.892;2023-01-10T13:25:19;26.70;;;8.10;;
20101;SDS011;10210;52.284;9.892;2023-01-10T13:28:03;23.27;;;7.23;;
20101;SDS011;10210;52.284;9.892;2023-01-10T13:30:39;29.00;;;8.20;;
20101;SDS011;10210;52.284;9.892;2023-01-10T13:33:06;23.83;;;7.70;;
20101;SDS011;10210;52.284;9.892;2023-01-10T13:35:48;29.53;;;9.30;;
20101;SDS011;10210;52.284;9.892;2023-01-10T13:38:25;23.80;;;7.80;;
20101;SDS011;10210;52.284;9.892;2023-01-10T13:41:09;21.27;;;6.57;;
20101;SDS011;10210;52.284;9.892;2023-01-10T13:46:51;22.63;;;6.60;;
20101;SDS011;10210;52.284;9.892;2023-01-10T13:49:22;23.87;;;7.40;;
20101;SDS011;10210;52.284;9.892;2023-01-10T13:55:00;22.00;;;6.73;;
20101;SDS011;10210;52.284;9.892;2023-01-10T13:58:44;21.20;;;6.53;;
20101;SDS011;10210;52.284;9.892;2023-01-10T14:04:32;21.67;;;6.50;;
20101;SDS011;10210;52.284;9.892;2023-01-10T14:07:18;20.47;;;6.13;;
20101;SDS011;10210;52.284;9.892;2023-01-10T14:10:20;23.90;;;6.43;;
20101;SDS011;10210;52.284;9.892;2023-01-10T14:12:54;23.30;;;6.50;;
20101;SDS011;10210;52.284;9.892;2023-01-10T14:15:43;25.07;;;6.70;;
20101;SDS011;10210;52.284;9.892;2023-01-10T14:18:21;25.97;;;7.50;;
20101;SDS011;10210;52.284;9.892;2023-01-10T14:20:57;22.57;;;6.63;;
20101;SDS011;10210;52.284;9.892;2023-01-10T14:23:39;17.43;;;6.43;;
20101;SDS011;10210;52.284;9.892;2023-01-10T14:28:58;20.63;;;6.47;;
20101;SDS011;10210;52.284;9.892;2023-01-10T14:31:29;22.27;;;6.03;;
20101;SDS011;10210;52.284;9.892;2023-01-10T14:33:55;18.37;;;6.20;;
20101;SDS011;10210;52.284;9.892;2023-01-10T14:36:28;19.70;;;5.90;;
20101;SDS011;10210;52.284;9.892;2023-01-10T14:39:03;17.23;;;5.27;;
20101;SDS011;10210;52.284;9.892;2023-01-10T14:44:26;20.00;;;5.20;;
20101;SDS011;10210;52.284;9.892;2023-01-10T14:47:29;20.17;;;4.93;;
20101;SDS011;10210;52.284;9.892;2023-01-10T14:49:58;21.07;;;5.23;;
20101;SDS011;10210;52.284;9.892;2023-01-10T14:52:26;20.17;;;5.53;;
20101;SDS011;10210;52.284;9.892;2023-01-10T14:55:09;15.93;;;5.33;;
20101;SDS011;10210;52.284;9.892;2023-01-10T14:57:35;20.03;;;5.73;;
20101;SDS011;10210;52.284;9.892;2023-01-10T15:00:13;23.13;;;6.23;;
20101;SDS011;10210;52.284;9.892;2023-01-10T15:02:44;24.03;;;6.93;;
20101;SDS011;10210;52.284;9.892;2023-01-10T15:05:17;22.40;;;7.33;;
20101;SDS011;10210;52.284;9.892;2023-01-10T15:07:55;18.50;;;6.27;;
20101;SDS011;10210;52.284;9.892;2023-01-10T15:11:01;19.97;;;5.50;;
20101;SDS011;10210;52.284;9.892;2023-01-10T15:13:34;18.83;;;5.60;;
20101;SDS011;10210;52.284;9.892;2023-01-10T15:16:16;17.30;;;5.43;;
20101;SDS011;10210;52.284;9.892;2023-01-10T15:18:46;20.17;;;5.57;;
20101;SDS011;10210;52.284;9.892;2023-01-10T15:21:14;20.57;;;5.70;;
20101;SDS011;10210;52.284;9.892;2023-01-10T15:23:45;20.87;;;6.37;;
20101;SDS011;10210;52.284;9.892;2023-01-10T15:29:01;20.93;;;6.47;;
20101;SDS011;10210;52.284;9.892;2023-01-10T15:31:48;22.00;;;6.40;;
20101;SDS011;10210;52.284;9.892;2023-01-10T15:34:16;19.80;;;6.80;;
20101;SDS011;10210;52.284;9.892;2023-01-10T15:36:54;20.87;;;7.07;;
20101;SDS011;10210;52.284;9.892;2023-01-10T15:39:30;19.90;;;7.50;;
20101;SDS011;10210;52.284;9.892;2023-01-10T15:42:08;22.73;;;8.60;;
20101;SDS011;10210;52.284;9.892;2023-01-10T15:44:39;20.10;;;8.60;;
20101;SDS011;10210;52.284;9.892;2023-01-10T15:47:30;17.07;;;6.60;;
20101;SDS011;10210;52.284;9.892;2023-01-10T15:50:17;20.40;;;6.47;;
20101;SDS011;10210;52.284;9.892;2023-01-10T15:53:00;17.43;;;5.90;;
20101;SDS011;10210;52.284;9.892;2023-01-10T15:55:34;19.30;;;5.30;;
20101;SDS011;10210;52.284;9.892;2023-01-10T15:58:29;21.10;;;5.33;;
20101;SDS011;10210;52.284;9.892;2023-01-10T16:01:00;17.37;;;5.23;;
20101;SDS011;10210;52.284;9.892;2023-01-10T16:03:30;16.10;;;4.80;;
20101;SDS011;10210;52.284;9.892;2023-01-10T16:06:01;18.67;;;4.97;;
20101;SDS011;10210;52.284;9.892;2023-01-10T16:08:32;18.33;;;5.47;;
20101;SDS011;10210;52.284;9.892;2023-01-10T16:11:05;19.03;;;5.30;;
20101;SDS011;10210;52.284;9.892;2023-01-10T16:14:02;14.13;;;4.40;;
20101;SDS011;10210;52.284;9.892;2023-01-10T16:16:28;18.70;;;4.90;;
20101;SDS011;10210;52.284;9.892;2023-01-10T16:18:54;17.30;;;4.30;;
20101;SDS011;10210;52.284;9.892;2023-01-10T16:21:20;21.07;;;5.23;;
20101;SDS011;10210;52.284;9.892;2023-01-10T16:23:45;15.80;;;4.37;;
20101;SDS011;10210;52.284;9.892;2023-01-10T16:26:12;16.57;;;4.30;;
20101;SDS011;10210;52.284;9.892;2023-01-10T16:28:39;20.50;;;4.70;;
20101;SDS011;10210;52.284;9.892;2023-01-10T16:31:09;17.30;;;3.87;;
20101;SDS011;10210;52.284;9.892;2023-01-10T16:33:38;20.57;;;4.23;;